Terminal Aerodrome Forecast
Issued by NWS

Home | Current Version | Previous Version | Text Only | Print | Product List | Glossary On
Versions: 1 2 3 4 5 6 7 8 9 10 11 12
000
FTUS45 KVEF 200536
TAFHND
TAF
KHND 200536Z 2006/2106 34007KT P6SM FEW120
     FM200900 24011KT P6SM SKC
     FM201100 18008KT P6SM SKC
     FM201800 36008KT P6SM FEW120
     FM202100 03006KT P6SM FEW120
     FM210400 17006KT P6SM BKN250=

USA.gov is the U.S. government's official web portal to all federal, state and local government web resources and services.